createdAt,value
2017-10-28T00:00:09.809Z,21.74
2017-10-28T00:00:41.465Z,21.74
2017-10-28T00:01:13.116Z,21.75
2017-10-28T00:01:44.771Z,21.76
2017-10-28T00:02:16.417Z,21.77
2017-10-28T00:02:48.065Z,21.78
2017-10-28T00:03:19.713Z,21.80
2017-10-28T00:03:51.627Z,21.80
2017-10-28T00:04:23.279Z,21.81
2017-10-28T00:04:54.930Z,21.82
2017-10-28T00:05:26.582Z,21.84
2017-10-28T00:05:58.235Z,21.83
2017-10-28T00:06:29.890Z,21.85
2017-10-28T00:07:01.547Z,21.85
2017-10-28T00:07:33.949Z,21.84
2017-10-28T00:08:05.604Z,21.85
2017-10-28T00:08:37.258Z,21.87
2017-10-28T00:09:08.957Z,21.88
2017-10-28T00:09:40.608Z,21.88
2017-10-28T00:10:12.264Z,21.88
2017-10-28T00:10:43.909Z,21.88
2017-10-28T00:11:15.558Z,21.90
2017-10-28T00:11:47.206Z,21.91
2017-10-28T00:12:18.861Z,21.92
2017-10-28T00:12:50.506Z,21.92
2017-10-28T00:13:22.166Z,21.93
2017-10-28T00:13:53.826Z,21.92
2017-10-28T00:14:25.521Z,21.92
2017-10-28T00:14:57.171Z,21.93
2017-10-28T00:15:28.823Z,21.94
2017-10-28T00:16:00.478Z,21.95
2017-10-28T00:16:32.262Z,21.96
2017-10-28T00:17:03.915Z,21.96
2017-10-28T00:17:35.574Z,21.95
2017-10-28T00:18:07.226Z,21.96
2017-10-28T00:18:38.873Z,21.96
2017-10-28T00:19:10.557Z,21.96
2017-10-28T00:19:42.253Z,21.96
2017-10-28T00:20:13.864Z,21.95
2017-10-28T00:20:45.525Z,21.96
2017-10-28T00:21:17.130Z,21.95
2017-10-28T00:21:48.784Z,21.96
2017-10-28T00:22:20.437Z,21.94
2017-10-28T00:22:52.047Z,21.95
2017-10-28T00:23:23.903Z,21.95
2017-10-28T00:23:55.863Z,21.93
2017-10-28T00:24:27.517Z,21.94
2017-10-28T00:24:59.184Z,21.93
2017-10-28T00:25:30.796Z,21.92
2017-10-28T00:26:02.450Z,21.91
2017-10-28T00:26:34.102Z,21.91
2017-10-28T00:27:05.762Z,21.90
2017-10-28T00:27:37.426Z,21.90
2017-10-28T00:28:09.078Z,21.89
2017-10-28T00:28:40.735Z,21.90
2017-10-28T00:29:12.388Z,21.89
2017-10-28T00:29:44.045Z,21.89
2017-10-28T00:30:21.538Z,21.87
2017-10-28T00:30:58.862Z,21.87
2017-10-28T00:31:36.199Z,21.88
2017-10-28T00:32:22.731Z,21.86
2017-10-28T00:33:00.158Z,21.86
2017-10-28T00:33:37.467Z,21.87
2017-10-28T00:34:14.887Z,21.87
2017-10-28T00:34:52.099Z,21.86
2017-10-28T00:35:29.429Z,21.85
2017-10-28T00:36:06.699Z,21.85
2017-10-28T00:36:38.355Z,21.85
2017-10-28T00:37:10.006Z,21.83
2017-10-28T00:37:41.653Z,21.82
2017-10-28T00:38:13.264Z,21.82
2017-10-28T00:38:44.949Z,21.82
2017-10-28T00:39:16.598Z,21.81
2017-10-28T00:39:48.250Z,21.80
2017-10-28T00:40:19.899Z,21.81
2017-10-28T00:40:51.550Z,21.82
2017-10-28T00:41:23.261Z,21.81
2017-10-28T00:41:54.927Z,21.80
2017-10-28T00:42:26.710Z,21.80
2017-10-28T00:42:58.401Z,21.80
2017-10-28T00:43:30.065Z,21.79
2017-10-28T00:44:01.723Z,21.78
2017-10-28T00:44:33.380Z,21.76
2017-10-28T00:45:05.034Z,21.76
2017-10-28T00:45:36.652Z,21.75
2017-10-28T00:46:08.509Z,21.76
2017-10-28T00:46:40.226Z,21.74
2017-10-28T00:47:11.882Z,21.74
2017-10-28T00:47:43.540Z,21.74
2017-10-28T00:48:15.198Z,21.73
2017-10-28T00:48:46.849Z,21.72
2017-10-28T00:49:18.515Z,21.72
2017-10-28T00:49:50.127Z,21.71
2017-10-28T00:50:21.744Z,21.70
2017-10-28T00:50:53.398Z,21.69
2017-10-28T00:51:25.017Z,21.69
2017-10-28T00:51:56.674Z,21.68
2017-10-28T00:52:28.325Z,21.67
2017-10-28T00:52:59.974Z,21.67
2017-10-28T00:53:31.625Z,21.66
2017-10-28T00:54:03.282Z,21.66
2017-10-28T00:54:34.941Z,21.65
2017-10-28T00:55:06.598Z,21.65
2017-10-28T00:55:38.370Z,21.64
2017-10-28T00:56:10.282Z,21.63
2017-10-28T00:56:41.938Z,21.63
2017-10-28T00:57:13.598Z,21.62
2017-10-28T00:57:45.254Z,21.63
2017-10-28T00:58:16.916Z,21.62
2017-10-28T00:58:48.575Z,21.61
2017-10-28T00:59:20.226Z,21.61
2017-10-28T00:59:52.119Z,21.60
2017-10-28T01:00:23.769Z,21.59
2017-10-28T01:00:55.422Z,21.60
2017-10-28T01:01:27.321Z,21.60
2017-10-28T01:01:58.991Z,21.58
2017-10-28T01:02:30.646Z,21.58
2017-10-28T01:03:02.294Z,21.59
2017-10-28T01:03:33.947Z,21.59
2017-10-28T01:04:05.601Z,21.60
2017-10-28T01:04:37.251Z,21.60
2017-10-28T01:05:08.901Z,21.62
2017-10-28T01:05:40.548Z,21.61
2017-10-28T01:06:12.194Z,21.60
2017-10-28T01:06:43.851Z,21.60
2017-10-28T01:07:15.512Z,21.60
2017-10-28T01:07:47.171Z,21.63
2017-10-28T01:08:18.827Z,21.65
2017-10-28T01:08:50.522Z,21.66
2017-10-28T01:09:22.192Z,21.64
2017-10-28T01:09:53.823Z,21.62
2017-10-28T01:10:25.487Z,21.59
2017-10-28T01:10:57.147Z,21.59
2017-10-28T01:11:28.797Z,21.60
2017-10-28T01:12:00.494Z,21.59
2017-10-28T01:12:32.145Z,21.57
2017-10-28T01:13:03.794Z,21.57
2017-10-28T01:13:35.441Z,21.57
2017-10-28T01:14:07.103Z,21.54
2017-10-28T01:14:38.754Z,21.54
2017-10-28T01:15:10.406Z,21.54
2017-10-28T01:15:42.058Z,21.52
2017-10-28T01:16:13.712Z,21.51
2017-10-28T01:16:45.581Z,21.51
2017-10-28T01:17:17.290Z,21.50
2017-10-28T01:17:48.937Z,21.49
2017-10-28T01:18:20.589Z,21.48
2017-10-28T01:18:52.440Z,21.48
2017-10-28T01:19:24.095Z,21.49
2017-10-28T01:19:55.742Z,21.48
2017-10-28T01:20:27.389Z,21.48
2017-10-28T01:20:59.038Z,21.45
2017-10-28T01:21:30.685Z,21.46
2017-10-28T01:22:02.334Z,21.47
2017-10-28T01:22:34.029Z,21.45
2017-10-28T01:23:05.674Z,21.45
2017-10-28T01:23:37.333Z,21.45
2017-10-28T01:24:08.949Z,21.44
2017-10-28T01:24:40.607Z,21.45
2017-10-28T01:25:12.275Z,21.44
2017-10-28T01:25:43.931Z,21.44
2017-10-28T01:26:15.581Z,21.45
2017-10-28T01:26:47.240Z,21.45
2017-10-28T01:27:18.906Z,21.46
2017-10-28T01:27:50.615Z,21.46
2017-10-28T01:28:22.231Z,21.46
2017-10-28T01:28:53.885Z,21.46
2017-10-28T01:29:25.550Z,21.46
2017-10-28T01:29:57.240Z,21.46
2017-10-28T01:30:28.889Z,21.46
2017-10-28T01:31:00.551Z,21.46
2017-10-28T01:31:32.202Z,21.46
2017-10-28T01:32:03.875Z,21.44
2017-10-28T01:32:35.547Z,21.44
2017-10-28T01:33:07.246Z,21.44
2017-10-28T01:33:38.901Z,21.45
2017-10-28T01:34:10.550Z,21.45
2017-10-28T01:34:42.214Z,21.43
2017-10-28T01:35:13.897Z,21.44
2017-10-28T01:35:45.561Z,21.43
2017-10-28T01:36:17.214Z,21.44
2017-10-28T01:36:48.866Z,21.43
2017-10-28T01:37:20.564Z,21.43
2017-10-28T01:37:52.224Z,21.43
2017-10-28T01:38:23.886Z,21.43
2017-10-28T01:38:55.540Z,21.42
2017-10-28T01:39:27.202Z,21.43
2017-10-28T01:39:58.859Z,21.43
2017-10-28T01:40:30.509Z,21.45
2017-10-28T01:41:02.161Z,21.45
2017-10-28T01:41:33.821Z,21.46
2017-10-28T01:42:05.514Z,21.46
2017-10-28T01:42:37.163Z,21.47
2017-10-28T01:43:08.814Z,21.49
2017-10-28T01:43:40.468Z,21.50
2017-10-28T01:44:12.089Z,21.52
2017-10-28T01:44:43.742Z,21.53
2017-10-28T01:45:15.394Z,21.54
2017-10-28T01:45:47.117Z,21.55
2017-10-28T01:46:18.770Z,21.56
2017-10-28T01:46:50.420Z,21.57
2017-10-28T01:47:22.075Z,21.60
2017-10-28T01:47:53.781Z,21.58
2017-10-28T01:48:25.400Z,21.58
2017-10-28T01:48:57.046Z,21.59
2017-10-28T01:49:28.694Z,21.59
2017-10-28T01:50:00.347Z,21.60
2017-10-28T01:50:31.999Z,21.61
2017-10-28T01:51:03.658Z,21.62
2017-10-28T01:51:35.354Z,21.61
2017-10-28T01:52:07.027Z,21.62
2017-10-28T01:52:38.685Z,21.65
2017-10-28T01:53:10.339Z,21.65
2017-10-28T01:53:41.988Z,21.66
2017-10-28T01:54:13.645Z,21.67
2017-10-28T01:54:45.297Z,21.70
2017-10-28T01:55:16.992Z,21.70
2017-10-28T01:55:48.646Z,21.70
2017-10-28T01:56:20.302Z,21.69
2017-10-28T01:56:52.179Z,21.69
2017-10-28T01:57:23.834Z,21.70
2017-10-28T01:57:55.488Z,21.71
2017-10-28T01:58:27.100Z,21.70
2017-10-28T01:58:58.757Z,21.71
2017-10-28T01:59:30.409Z,21.71
2017-10-28T02:00:02.378Z,21.72
2017-10-28T02:00:34.039Z,21.72
2017-10-28T02:01:05.693Z,21.73
2017-10-28T02:01:37.354Z,21.73
2017-10-28T02:02:09.059Z,21.72
2017-10-28T02:02:40.705Z,21.72
2017-10-28T02:03:12.359Z,21.72
2017-10-28T02:03:44.014Z,21.72
2017-10-28T02:04:15.666Z,21.72
2017-10-28T02:04:47.329Z,21.73
2017-10-28T02:05:19.095Z,21.72
2017-10-28T02:05:50.746Z,21.72
2017-10-28T02:06:22.398Z,21.73
2017-10-28T02:06:54.050Z,21.72
2017-10-28T02:07:25.969Z,21.73
2017-10-28T02:07:57.800Z,21.73
2017-10-28T02:08:29.465Z,21.72
2017-10-28T02:09:01.118Z,21.70
2017-10-28T02:09:32.770Z,21.70
2017-10-28T02:10:04.418Z,21.70
2017-10-28T02:10:36.068Z,21.69
2017-10-28T02:11:07.731Z,21.68
2017-10-28T02:11:39.388Z,21.68
2017-10-28T02:12:11.053Z,21.66
2017-10-28T02:12:42.754Z,21.65
2017-10-28T02:13:14.645Z,21.65
2017-10-28T02:13:46.297Z,21.66
2017-10-28T02:14:17.947Z,21.64
2017-10-28T02:14:49.606Z,21.63
2017-10-28T02:15:21.274Z,21.63
2017-10-28T02:15:52.886Z,21.64
2017-10-28T02:16:24.538Z,21.64
2017-10-28T02:16:56.197Z,21.63
2017-10-28T02:17:27.855Z,21.63
2017-10-28T02:17:59.510Z,21.61
2017-10-28T02:18:31.372Z,21.61
2017-10-28T02:19:02.988Z,21.61
2017-10-28T02:19:34.658Z,21.60
2017-10-28T02:20:06.314Z,21.60
2017-10-28T02:20:37.968Z,21.60
2017-10-28T02:21:09.601Z,21.60
2017-10-28T02:21:41.259Z,21.59
2017-10-28T02:22:12.962Z,21.58
2017-10-28T02:22:44.618Z,21.58
2017-10-28T02:23:16.279Z,21.56
2017-10-28T02:23:47.935Z,21.55
2017-10-28T02:24:19.593Z,21.54
2017-10-28T02:24:51.254Z,21.52
2017-10-28T02:25:23.035Z,21.53
2017-10-28T02:25:54.653Z,21.52
2017-10-28T02:26:26.305Z,21.52
2017-10-28T02:26:57.957Z,21.52
2017-10-28T02:27:29.800Z,21.51
2017-10-28T02:28:01.414Z,21.51
2017-10-28T02:28:33.120Z,21.50
2017-10-28T02:29:04.782Z,21.51
2017-10-28T02:29:36.448Z,21.50
2017-10-28T02:30:08.104Z,21.50
2017-10-28T02:30:39.750Z,21.50
2017-10-28T02:31:11.402Z,21.49
2017-10-28T02:31:43.053Z,21.48
2017-10-28T02:32:14.710Z,21.47
2017-10-28T02:32:46.366Z,21.48
2017-10-28T02:33:18.022Z,21.48
2017-10-28T02:33:49.686Z,21.47
2017-10-28T02:34:21.550Z,21.48
2017-10-28T02:34:53.256Z,21.47
2017-10-28T02:35:24.916Z,21.47
2017-10-28T02:35:56.769Z,21.46
2017-10-28T02:36:28.462Z,21.47
2017-10-28T02:37:00.154Z,21.47
2017-10-28T02:37:31.836Z,21.49
2017-10-28T02:38:03.483Z,21.49
2017-10-28T02:38:35.119Z,21.49
2017-10-28T02:39:06.810Z,21.50
2017-10-28T02:39:38.491Z,21.50
2017-10-28T02:40:10.166Z,21.50
2017-10-28T02:40:41.838Z,21.50
2017-10-28T02:41:13.514Z,21.50
2017-10-28T02:41:45.191Z,21.51
2017-10-28T02:42:16.875Z,21.50
2017-10-28T02:42:48.746Z,21.50
2017-10-28T02:43:20.436Z,21.51
2017-10-28T02:43:52.080Z,21.51
2017-10-28T02:44:23.744Z,21.50
2017-10-28T02:44:55.502Z,21.50
2017-10-28T02:45:27.197Z,21.50
2017-10-28T02:45:59.029Z,21.49
2017-10-28T02:46:30.854Z,21.48
2017-10-28T02:47:02.539Z,21.48
2017-10-28T02:47:34.218Z,21.47
2017-10-28T02:48:06.083Z,21.47
2017-10-28T02:48:37.737Z,21.46
2017-10-28T02:49:09.385Z,21.48
2017-10-28T02:49:41.074Z,21.48
2017-10-28T02:50:12.723Z,21.48
2017-10-28T02:50:44.599Z,21.47
2017-10-28T02:51:16.495Z,21.47
2017-10-28T02:51:48.146Z,21.46
2017-10-28T02:52:19.789Z,21.46
2017-10-28T02:52:51.487Z,21.46
2017-10-28T02:53:23.424Z,21.46
2017-10-28T02:53:55.074Z,21.46
2017-10-28T02:54:26.782Z,21.47
2017-10-28T02:54:58.440Z,21.46
2017-10-28T02:55:30.283Z,21.47
2017-10-28T02:56:02.246Z,21.46
2017-10-28T02:56:33.898Z,21.46
2017-10-28T02:57:05.558Z,21.46
2017-10-28T02:57:37.259Z,21.46
2017-10-28T02:58:08.941Z,21.45
2017-10-28T02:58:40.600Z,21.45
2017-10-28T02:59:12.406Z,21.44
2017-10-28T02:59:44.073Z,21.44
2017-10-28T03:00:15.731Z,21.42
2017-10-28T03:00:47.382Z,21.42
2017-10-28T03:01:19.055Z,21.42
2017-10-28T03:01:50.718Z,21.41
2017-10-28T03:02:23.202Z,21.40
2017-10-28T03:02:54.865Z,21.38
2017-10-28T03:03:26.527Z,21.38
2017-10-28T03:03:58.193Z,21.38
2017-10-28T03:04:29.898Z,21.37
2017-10-28T03:05:01.553Z,21.36
2017-10-28T03:05:33.207Z,21.36
2017-10-28T03:06:04.875Z,21.35
2017-10-28T03:06:36.526Z,21.35
2017-10-28T03:07:08.182Z,21.35
2017-10-28T03:07:39.838Z,21.36
2017-10-28T03:08:11.531Z,21.35
2017-10-28T03:08:43.187Z,21.32
2017-10-28T03:09:14.841Z,21.34
2017-10-28T03:09:46.495Z,21.35
2017-10-28T03:10:18.163Z,21.34
2017-10-28T03:10:49.814Z,21.35
2017-10-28T03:11:21.470Z,21.35
2017-10-28T03:11:53.130Z,21.36
2017-10-28T03:12:24.781Z,21.36
2017-10-28T03:12:56.631Z,21.38
2017-10-28T03:13:28.580Z,21.39
2017-10-28T03:14:00.270Z,21.39
2017-10-28T03:14:31.926Z,21.40
2017-10-28T03:15:03.578Z,21.41
2017-10-28T03:15:35.650Z,21.42
2017-10-28T03:16:07.403Z,21.43
2017-10-28T03:16:39.050Z,21.43
2017-10-28T03:17:10.694Z,21.44
2017-10-28T03:17:42.338Z,21.46
2017-10-28T03:18:13.999Z,21.48
2017-10-28T03:18:45.654Z,21.47
2017-10-28T03:19:17.301Z,21.47
2017-10-28T03:19:48.950Z,21.49
2017-10-28T03:20:20.605Z,21.49
2017-10-28T03:20:52.293Z,21.51
2017-10-28T03:21:23.938Z,21.51
2017-10-28T03:21:55.590Z,21.52
2017-10-28T03:22:27.233Z,21.54
2017-10-28T03:22:58.881Z,21.57
2017-10-28T03:23:30.521Z,21.58
2017-10-28T03:24:02.205Z,21.59
2017-10-28T03:24:33.859Z,21.58
2017-10-28T03:25:05.623Z,21.59
2017-10-28T03:25:37.277Z,21.60
2017-10-28T03:26:08.964Z,21.60
2017-10-28T03:26:40.618Z,21.60
2017-10-28T03:27:12.504Z,21.63
2017-10-28T03:27:44.154Z,21.64
2017-10-28T03:28:15.802Z,21.65
2017-10-28T03:28:47.489Z,21.65
2017-10-28T03:29:19.260Z,21.65
2017-10-28T03:29:50.950Z,21.64
2017-10-28T03:30:22.656Z,21.65
2017-10-28T03:30:54.315Z,21.66
2017-10-28T03:31:25.966Z,21.66
2017-10-28T03:31:57.610Z,21.66
2017-10-28T03:32:29.253Z,21.66
2017-10-28T03:33:00.905Z,21.68
2017-10-28T03:33:32.549Z,21.68
2017-10-28T03:34:04.193Z,21.69
2017-10-28T03:34:35.872Z,21.69
2017-10-28T03:35:07.522Z,21.69
2017-10-28T03:35:39.383Z,21.70
2017-10-28T03:36:11.216Z,21.70
2017-10-28T03:36:42.973Z,21.69
2017-10-28T03:37:14.924Z,21.70
2017-10-28T03:37:46.574Z,21.71
2017-10-28T03:38:18.224Z,21.71
2017-10-28T03:38:49.918Z,21.71
2017-10-28T03:39:21.797Z,21.70
2017-10-28T03:39:53.747Z,21.71
2017-10-28T03:40:25.389Z,21.72
2017-10-28T03:40:57.038Z,21.72
2017-10-28T03:41:28.685Z,21.73
2017-10-28T03:42:00.327Z,21.74
2017-10-28T03:42:31.969Z,21.72
2017-10-28T03:43:03.609Z,21.71
2017-10-28T03:43:35.261Z,21.70
2017-10-28T03:44:06.910Z,21.70
2017-10-28T03:44:38.558Z,21.70
2017-10-28T03:45:10.439Z,21.70
2017-10-28T03:45:42.114Z,21.70
2017-10-28T03:46:14.016Z,21.70
2017-10-28T03:46:45.706Z,21.68
2017-10-28T03:47:17.363Z,21.67
2017-10-28T03:47:49.016Z,21.66
2017-10-28T03:48:20.669Z,21.64
2017-10-28T03:48:52.322Z,21.65
2017-10-28T03:49:23.979Z,21.65
2017-10-28T03:49:55.630Z,21.65
2017-10-28T03:50:27.323Z,21.63
2017-10-28T03:50:58.979Z,21.61
2017-10-28T03:51:30.634Z,21.63
2017-10-28T03:52:02.287Z,21.62
2017-10-28T03:52:33.947Z,21.61
2017-10-28T03:53:05.716Z,21.61
2017-10-28T03:53:37.369Z,21.60
2017-10-28T03:54:09.022Z,21.59
2017-10-28T03:54:40.636Z,21.60
2017-10-28T03:55:12.251Z,21.59
2017-10-28T03:55:43.972Z,21.59
2017-10-28T03:56:15.783Z,21.58
2017-10-28T03:56:47.438Z,21.58
2017-10-28T03:57:19.049Z,21.57
2017-10-28T03:57:50.663Z,21.57
2017-10-28T03:58:22.315Z,21.56
2017-10-28T03:58:54.085Z,21.54
2017-10-28T03:59:25.738Z,21.54
2017-10-28T03:59:57.386Z,21.52
2017-10-28T04:00:29.034Z,21.51
2017-10-28T04:01:00.734Z,21.51
2017-10-28T04:01:32.383Z,21.50
2017-10-28T04:02:04.242Z,21.50
2017-10-28T04:02:35.897Z,21.49
2017-10-28T04:03:07.556Z,21.49
2017-10-28T04:03:39.205Z,21.48
2017-10-28T04:04:10.863Z,21.47
2017-10-28T04:04:42.515Z,21.47
2017-10-28T04:05:14.163Z,21.46
2017-10-28T04:05:45.819Z,21.46
2017-10-28T04:06:17.685Z,21.45
2017-10-28T04:06:49.334Z,21.44
2017-10-28T04:07:20.981Z,21.44
2017-10-28T04:07:52.635Z,21.43
2017-10-28T04:08:24.277Z,21.42
2017-10-28T04:08:55.929Z,21.42
2017-10-28T04:09:27.583Z,21.42
2017-10-28T04:09:59.271Z,21.42
2017-10-28T04:10:30.937Z,21.41
2017-10-28T04:11:02.590Z,21.40
2017-10-28T04:11:34.283Z,21.40
2017-10-28T04:12:06.053Z,21.40
2017-10-28T04:12:37.709Z,21.38
2017-10-28T04:13:09.354Z,21.37
2017-10-28T04:13:40.975Z,21.37
2017-10-28T04:14:12.628Z,21.36
2017-10-28T04:14:44.280Z,21.36
2017-10-28T04:15:15.933Z,21.37
2017-10-28T04:15:47.587Z,21.35
2017-10-28T04:16:19.285Z,21.35
2017-10-28T04:16:51.139Z,21.36
2017-10-28T04:17:22.794Z,21.34
2017-10-28T04:17:54.443Z,21.34
2017-10-28T04:18:26.098Z,21.33
2017-10-28T04:18:57.751Z,21.32
2017-10-28T04:19:29.410Z,21.32
2017-10-28T04:20:01.075Z,21.32
2017-10-28T04:20:32.732Z,21.33
2017-10-28T04:21:04.399Z,21.33
2017-10-28T04:21:36.091Z,21.33
2017-10-28T04:22:07.747Z,21.31
2017-10-28T04:22:39.406Z,21.31
2017-10-28T04:23:11.015Z,21.30
2017-10-28T04:23:42.665Z,21.30
2017-10-28T04:24:14.315Z,21.28
2017-10-28T04:24:46.006Z,21.28
2017-10-28T04:25:17.670Z,21.28
2017-10-28T04:25:49.354Z,21.28
2017-10-28T04:26:21.006Z,21.27
2017-10-28T04:26:52.658Z,21.27
2017-10-28T04:27:24.341Z,21.26
2017-10-28T04:27:56.056Z,21.25
2017-10-28T04:28:27.705Z,21.25
2017-10-28T04:28:59.345Z,21.25
2017-10-28T04:29:31.002Z,21.26
2017-10-28T04:30:02.659Z,21.26
2017-10-28T04:30:34.441Z,21.28
2017-10-28T04:31:06.094Z,21.28
2017-10-28T04:31:37.737Z,21.28
2017-10-28T04:32:09.381Z,21.29
2017-10-28T04:32:41.022Z,21.28
2017-10-28T04:33:12.673Z,21.28
2017-10-28T04:33:44.318Z,21.28
2017-10-28T04:34:15.962Z,21.27
2017-10-28T04:34:47.610Z,21.27
2017-10-28T04:35:19.257Z,21.26
2017-10-28T04:35:50.910Z,21.25
2017-10-28T04:36:22.561Z,21.26
2017-10-28T04:36:54.215Z,21.26
2017-10-28T04:37:26.093Z,21.26
2017-10-28T04:37:57.746Z,21.25
2017-10-28T04:38:29.446Z,21.26
2017-10-28T04:39:01.103Z,21.26
2017-10-28T04:39:32.969Z,21.26
2017-10-28T04:40:04.617Z,21.25
2017-10-28T04:40:36.265Z,21.25
2017-10-28T04:41:07.914Z,21.25
2017-10-28T04:41:39.569Z,21.26
2017-10-28T04:42:11.210Z,21.25
2017-10-28T04:42:42.854Z,21.24
2017-10-28T04:43:14.502Z,21.26
2017-10-28T04:43:46.207Z,21.26
2017-10-28T04:44:17.852Z,21.27
2017-10-28T04:44:49.502Z,21.26
2017-10-28T04:45:21.154Z,21.27
2017-10-28T04:45:52.798Z,21.27
2017-10-28T04:46:24.445Z,21.28
2017-10-28T04:46:56.090Z,21.29
2017-10-28T04:47:27.745Z,21.31
2017-10-28T04:47:59.402Z,21.32
2017-10-28T04:48:31.188Z,21.34
2017-10-28T04:49:02.890Z,21.37
2017-10-28T04:49:34.537Z,21.38
2017-10-28T04:50:06.421Z,21.39
2017-10-28T04:50:38.070Z,21.39
2017-10-28T04:51:09.717Z,21.40
2017-10-28T04:51:41.393Z,21.41
2017-10-28T04:52:13.051Z,21.42
2017-10-28T04:52:44.683Z,21.43
2017-10-28T04:53:16.351Z,21.44
2017-10-28T04:53:48.013Z,21.46
2017-10-28T04:54:19.711Z,21.47
2017-10-28T04:54:51.361Z,21.47
2017-10-28T04:55:23.014Z,21.48
2017-10-28T04:55:54.727Z,21.47
2017-10-28T04:56:26.348Z,21.49
2017-10-28T04:56:57.969Z,21.50
2017-10-28T04:57:29.620Z,21.50
2017-10-28T04:58:01.302Z,21.52
2017-10-28T04:58:32.966Z,21.54
2017-10-28T04:59:04.589Z,21.54
2017-10-28T04:59:36.251Z,21.56
2017-10-28T05:00:07.873Z,21.56
2017-10-28T05:00:39.526Z,21.57
2017-10-28T05:01:11.225Z,21.58
2017-10-28T05:01:42.900Z,21.58
2017-10-28T05:02:14.560Z,21.57
2017-10-28T05:02:46.224Z,21.58
2017-10-28T05:03:17.858Z,21.58
2017-10-28T05:03:49.509Z,21.58
2017-10-28T05:04:21.172Z,21.59
2017-10-28T05:04:52.870Z,21.58
2017-10-28T05:05:24.526Z,21.58
2017-10-28T05:05:56.178Z,21.58
2017-10-28T05:06:27.935Z,21.59
2017-10-28T05:06:59.585Z,21.60
2017-10-28T05:07:31.238Z,21.61
2017-10-28T05:08:02.887Z,21.60
2017-10-28T05:08:34.544Z,21.61
2017-10-28T05:09:06.420Z,21.62
2017-10-28T05:09:38.091Z,21.61
2017-10-28T05:10:09.789Z,21.59
2017-10-28T05:10:41.683Z,21.60
2017-10-28T05:11:13.338Z,21.59
2017-10-28T05:11:44.985Z,21.59
2017-10-28T05:12:16.916Z,21.58
2017-10-28T05:12:48.566Z,21.59
2017-10-28T05:13:20.211Z,21.59
2017-10-28T05:13:51.863Z,21.59
2017-10-28T05:14:23.513Z,21.59
2017-10-28T05:14:55.162Z,21.60
2017-10-28T05:15:26.822Z,21.61
2017-10-28T05:15:58.477Z,21.61
2017-10-28T05:16:30.324Z,21.62
2017-10-28T05:17:02.001Z,21.62
2017-10-28T05:17:33.658Z,21.63
2017-10-28T05:18:05.306Z,21.63
2017-10-28T05:18:36.953Z,21.65
2017-10-28T05:19:08.879Z,21.65
2017-10-28T05:19:40.526Z,21.65
2017-10-28T05:20:12.170Z,21.64
2017-10-28T05:20:43.813Z,21.63
2017-10-28T05:21:15.471Z,21.64
2017-10-28T05:21:47.126Z,21.63
2017-10-28T05:22:18.814Z,21.65
2017-10-28T05:22:50.468Z,21.64
2017-10-28T05:23:22.122Z,21.64
2017-10-28T05:23:53.782Z,21.63
2017-10-28T05:24:25.482Z,21.61
2017-10-28T05:24:57.149Z,21.61
2017-10-28T05:25:28.805Z,21.61
2017-10-28T05:26:00.414Z,21.58
2017-10-28T05:26:32.066Z,21.59
2017-10-28T05:27:03.719Z,21.58
2017-10-28T05:27:35.378Z,21.59
2017-10-28T05:28:07.027Z,21.58
2017-10-28T05:28:38.687Z,21.57
2017-10-28T05:29:10.334Z,21.57
2017-10-28T05:29:42.046Z,21.54
2017-10-28T05:30:13.702Z,21.53
2017-10-28T05:30:45.368Z,21.52
2017-10-28T05:31:17.023Z,21.51
2017-10-28T05:31:48.678Z,21.51
2017-10-28T05:32:20.341Z,21.49
2017-10-28T05:32:52.003Z,21.48
2017-10-28T05:33:23.665Z,21.47
2017-10-28T05:33:55.342Z,21.45
2017-10-28T05:34:26.999Z,21.45
2017-10-28T05:34:58.659Z,21.44
2017-10-28T05:35:30.327Z,21.43
2017-10-28T05:36:01.979Z,21.42
2017-10-28T05:36:33.627Z,21.44
2017-10-28T05:37:05.274Z,21.43
2017-10-28T05:37:37.264Z,21.42
2017-10-28T05:38:08.914Z,21.40
2017-10-28T05:38:40.564Z,21.40
2017-10-28T05:39:12.216Z,21.40
2017-10-28T05:39:43.876Z,21.39
2017-10-28T05:40:15.498Z,21.38
2017-10-28T05:40:47.150Z,21.38
2017-10-28T05:41:18.765Z,21.37
2017-10-28T05:41:50.707Z,21.36
2017-10-28T05:42:22.368Z,21.35
2017-10-28T05:42:54.019Z,21.36
2017-10-28T05:43:25.673Z,21.35
2017-10-28T05:43:57.329Z,21.35
2017-10-28T05:44:28.945Z,21.34
2017-10-28T05:45:00.620Z,21.32
2017-10-28T05:45:32.506Z,21.33
2017-10-28T05:46:04.157Z,21.32
2017-10-28T05:46:35.773Z,21.31
2017-10-28T05:47:07.733Z,21.30
2017-10-28T05:47:39.392Z,21.30
2017-10-28T05:48:11.008Z,21.28
2017-10-28T05:48:42.670Z,21.28
2017-10-28T05:49:14.327Z,21.27
2017-10-28T05:49:45.945Z,21.25
2017-10-28T05:50:17.774Z,21.26
2017-10-28T05:50:49.437Z,21.26
2017-10-28T05:51:21.093Z,21.24
2017-10-28T05:51:52.751Z,21.25
2017-10-28T05:52:24.403Z,21.24
2017-10-28T05:52:56.019Z,21.23
2017-10-28T05:53:27.670Z,21.22
2017-10-28T05:53:59.321Z,21.20
2017-10-28T05:54:30.980Z,21.19
2017-10-28T05:55:02.629Z,21.18
2017-10-28T05:55:34.287Z,21.18
2017-10-28T05:56:05.946Z,21.18
2017-10-28T05:56:37.639Z,21.17
2017-10-28T05:57:09.550Z,21.16
2017-10-28T05:57:41.205Z,21.16
2017-10-28T05:58:12.818Z,21.15
2017-10-28T05:58:44.477Z,21.15
2017-10-28T05:59:16.086Z,21.15
2017-10-28T05:59:47.741Z,21.14
2017-10-28T06:00:19.406Z,21.12
2017-10-28T06:00:51.117Z,21.13
2017-10-28T06:01:22.993Z,21.13
2017-10-28T06:01:54.647Z,21.12
2017-10-28T06:02:26.302Z,21.13
2017-10-28T06:02:57.919Z,21.13
2017-10-28T06:03:29.569Z,21.13
2017-10-28T06:04:01.220Z,21.14
2017-10-28T06:04:32.874Z,21.14
2017-10-28T06:05:04.526Z,21.14
2017-10-28T06:05:36.353Z,21.15
2017-10-28T06:06:08.050Z,21.14
2017-10-28T06:06:39.755Z,21.13
2017-10-28T06:07:11.406Z,21.12
2017-10-28T06:07:43.067Z,21.12
2017-10-28T06:08:14.732Z,21.12
2017-10-28T06:08:46.593Z,21.11
2017-10-28T06:09:18.246Z,21.11
2017-10-28T06:09:49.899Z,21.11
2017-10-28T06:10:21.555Z,21.10
2017-10-28T06:10:53.205Z,21.09
2017-10-28T06:11:24.865Z,21.09
2017-10-28T06:11:56.753Z,21.09
2017-10-28T06:12:28.402Z,21.12
2017-10-28T06:13:00.055Z,21.14
2017-10-28T06:13:31.702Z,21.14
2017-10-28T06:14:03.352Z,21.13
2017-10-28T06:14:35.013Z,21.14
2017-10-28T06:15:06.662Z,21.13
2017-10-28T06:15:38.305Z,21.13
2017-10-28T06:16:09.951Z,21.13
2017-10-28T06:16:41.661Z,21.13
2017-10-28T06:17:13.305Z,21.14
2017-10-28T06:17:44.950Z,21.14
2017-10-28T06:18:16.594Z,21.14
2017-10-28T06:18:48.243Z,21.14
2017-10-28T06:19:19.889Z,21.15
2017-10-28T06:19:51.542Z,21.17
2017-10-28T06:20:23.190Z,21.17
2017-10-28T06:20:54.971Z,21.18
2017-10-28T06:21:26.629Z,21.18
2017-10-28T06:21:58.310Z,21.19
2017-10-28T06:22:29.965Z,21.20
2017-10-28T06:23:01.620Z,21.23
2017-10-28T06:23:33.309Z,21.26
2017-10-28T06:24:04.950Z,21.24
2017-10-28T06:24:36.594Z,21.26
2017-10-28T06:25:08.241Z,21.27
2017-10-28T06:25:39.885Z,21.28
2017-10-28T06:26:11.544Z,21.30
2017-10-28T06:26:43.339Z,21.29
2017-10-28T06:27:14.990Z,21.30
2017-10-28T06:27:46.633Z,21.30
2017-10-28T06:28:18.282Z,21.31
2017-10-28T06:28:49.922Z,21.34
2017-10-28T06:29:21.566Z,21.36
2017-10-28T06:29:53.213Z,21.36
2017-10-28T06:30:24.858Z,21.38
2017-10-28T06:30:56.543Z,21.39
2017-10-28T06:31:28.424Z,21.40
2017-10-28T06:32:00.114Z,21.40
2017-10-28T06:32:31.762Z,21.41
2017-10-28T06:33:03.413Z,21.43
2017-10-28T06:33:35.099Z,21.41
2017-10-28T06:34:06.767Z,21.42
2017-10-28T06:34:38.396Z,21.43
2017-10-28T06:35:10.051Z,21.45
2017-10-28T06:35:41.706Z,21.46
2017-10-28T06:36:13.368Z,21.48
2017-10-28T06:36:45.026Z,21.49
2017-10-28T06:37:16.730Z,21.50
2017-10-28T06:37:48.390Z,21.50
2017-10-28T06:38:20.029Z,21.51
2017-10-28T06:38:51.751Z,21.50
2017-10-28T06:39:23.451Z,21.51
2017-10-28T06:39:55.311Z,21.50
2017-10-28T06:40:26.975Z,21.48
2017-10-28T06:40:58.640Z,21.49
2017-10-28T06:41:30.301Z,21.49
2017-10-28T06:42:01.960Z,21.49
2017-10-28T06:42:33.623Z,21.49
2017-10-28T06:43:05.286Z,21.53
2017-10-28T06:43:36.941Z,21.53
2017-10-28T06:44:08.598Z,21.55
2017-10-28T06:44:40.249Z,21.55
2017-10-28T06:45:11.922Z,21.54
2017-10-28T06:45:43.573Z,21.58
2017-10-28T06:46:15.318Z,21.57
2017-10-28T06:46:47.187Z,21.62
2017-10-28T06:47:18.846Z,21.62
2017-10-28T06:47:50.538Z,21.62
2017-10-28T06:48:22.194Z,21.60
2017-10-28T06:48:53.868Z,21.59